首页
METAR-TAF:

METAR-TAF

机场 :

黑角, 刚果

纬度: 04-49S, 经度: 011-54E, 海拔: 17米

当前天气观测

该预报发布于50分钟前的20:30 UTC
风速2节,风向
温度 23°C
湿度 94%
气压 1011 hPa
能見度: 6000
少量云层高于1000英尺
散云层高于2300英尺

METAR: FCPP 252030Z 17002KT 6000 FEW010 SCT023 23/22 Q1011 NOSIG

时间: 22:20 (21:20 UTC)

预报

该预报发布于4小时和20分钟前的17:00 UTC
预报有效从25日的 18点(UTC)到 26日的 18点(UTC)
风速4节,风向多变
能見度: 7000
少量云层高于1000英尺
多云层高于2300英尺
成为
从 26日的 04点(UTC)到 26日的 06点(UTC)
能見度: 4000
轻雾
成为
从 26日的 07点(UTC)到 26日的 09点(UTC)
能見度: 7000
成为
从 26日的 09点(UTC)到 26日的 11点(UTC)
风速10节,风向

TAF: FCPP 251700Z 2518/2618 VRB04KT 7000 FEW010 BKN023 BECMG 2604/2606 4000 BR BECMG 2607/2609 7000 NSW BECMG 2609/2611 19010KT

超过4000个机场的气象观测和天气预报(METAR&TAF报告)。

可查询的气象台以黄色和红色小点在地图上表示。

将鼠标移到小点上方,可查看气象台名称。

然后点击查看天气观测和预报。

如需切换地图:点击带黑十字的绿色按钮放大地图;点击带横线的绿色按钮缩小地图;或者点击绿色箭头查看邻近地区的地图。


METAR-TAF: